createdAt,value
2023-03-25T00:00:39.677Z,20.50
2023-03-25T00:05:43.095Z,20.40
2023-03-25T00:10:52.666Z,20.30
2023-03-25T00:15:58.531Z,20.30
2023-03-25T00:21:03.145Z,20.20
2023-03-25T00:26:08.584Z,20.20
2023-03-25T00:31:14.754Z,20.10
2023-03-25T00:36:18.332Z,20.10
2023-03-25T00:41:27.614Z,20.00
2023-03-25T00:46:33.051Z,20.00
2023-03-25T00:51:36.548Z,20.00
2023-03-25T00:56:58.068Z,19.90
2023-03-25T01:02:02.955Z,19.90
2023-03-25T01:07:06.317Z,20.00
2023-03-25T01:12:11.100Z,20.00
2023-03-25T01:17:14.448Z,19.90
2023-03-25T01:22:17.807Z,19.90
2023-03-25T01:27:24.619Z,19.90
2023-03-25T01:32:29.626Z,19.80
2023-03-25T01:37:36.827Z,19.80
2023-03-25T01:42:41.543Z,19.80
2023-03-25T01:47:45.531Z,19.80
2023-03-25T01:52:52.184Z,19.80
2023-03-25T01:57:59.981Z,19.80
2023-03-25T02:03:04.095Z,19.80
2023-03-25T02:08:09.300Z,19.80
2023-03-25T02:13:16.028Z,19.80
2023-03-25T02:18:31.892Z,19.80
2023-03-25T02:31:11.825Z,19.80
2023-03-25T02:36:53.639Z,19.80
2023-03-25T02:42:04.885Z,19.80
2023-03-25T02:47:14.554Z,19.80
2023-03-25T02:52:22.733Z,19.80
2023-03-25T02:57:29.873Z,19.80
2023-03-25T03:02:34.306Z,19.80
2023-03-25T03:07:44.334Z,19.80
2023-03-25T03:13:01.488Z,19.80
2023-03-25T03:18:13.198Z,19.80
2023-03-25T03:23:26.876Z,19.70
2023-03-25T03:28:35.977Z,19.80
2023-03-25T03:33:48.154Z,19.80
2023-03-25T03:38:57.951Z,19.70
2023-03-25T03:44:06.251Z,19.80
2023-03-25T03:49:13.763Z,19.80
2023-03-25T03:54:22.642Z,19.80
2023-03-25T03:59:37.139Z,19.80
2023-03-25T04:04:42.787Z,19.80
2023-03-25T04:09:56.700Z,19.80
2023-03-25T04:15:04.583Z,19.80
2023-03-25T04:20:11.741Z,19.80
2023-03-25T04:25:15.114Z,19.80
2023-03-25T04:30:19.800Z,19.80
2023-03-25T04:35:23.339Z,19.80
2023-03-25T04:40:26.942Z,19.80
2023-03-25T04:45:36.502Z,19.80
2023-03-25T04:50:39.996Z,19.70
2023-03-25T04:55:48.146Z,19.70
2023-03-25T05:00:54.025Z,19.70
2023-03-25T05:05:57.441Z,19.70
2023-03-25T05:11:00.908Z,19.60
2023-03-25T05:16:06.088Z,19.60
2023-03-25T05:21:11.403Z,19.50
2023-03-25T05:26:14.687Z,19.40
2023-03-25T05:31:19.600Z,19.40
2023-03-25T05:36:25.168Z,19.30
2023-03-25T05:41:33.148Z,19.40
2023-03-25T05:46:38.014Z,19.40
2023-03-25T05:51:42.158Z,19.40
2023-03-25T05:56:45.712Z,19.30
2023-03-25T06:01:50.498Z,19.30
2023-03-25T06:06:54.023Z,19.30
2023-03-25T06:11:57.363Z,19.30
2023-03-25T06:17:02.566Z,19.30
2023-03-25T06:28:23.504Z,19.20
2023-03-25T06:33:43.425Z,19.10
2023-03-25T06:45:05.306Z,19.10
2023-03-25T06:50:22.794Z,19.10
2023-03-25T06:55:26.291Z,19.10
2023-03-25T07:00:29.554Z,19.10
2023-03-25T07:11:50.119Z,19.20
2023-03-25T07:16:53.535Z,19.20
2023-03-25T07:21:58.214Z,19.10
2023-03-25T07:27:01.615Z,19.20
2023-03-25T07:32:08.714Z,19.20
2023-03-25T07:37:13.665Z,19.20
2023-03-25T07:42:17.318Z,19.30
2023-03-25T07:47:38.559Z,19.30
2023-03-25T07:52:43.998Z,19.30
2023-03-25T07:57:48.001Z,19.30
2023-03-25T08:02:51.478Z,19.30
2023-03-25T08:08:00.201Z,19.20
2023-03-25T08:13:03.592Z,19.20
2023-03-25T08:18:07.834Z,19.30
2023-03-25T08:23:12.756Z,19.30
2023-03-25T08:28:17.410Z,19.40
2023-03-25T08:33:21.742Z,19.40
2023-03-25T08:38:34.686Z,19.40
2023-03-25T08:43:38.579Z,19.50
2023-03-25T08:48:43.977Z,19.50
2023-03-25T08:53:49.542Z,19.60
2023-03-25T08:58:53.186Z,19.60
2023-03-25T09:03:57.938Z,19.60
2023-03-25T09:09:02.740Z,19.50
2023-03-25T09:14:06.466Z,19.50
2023-03-25T09:25:56.718Z,19.50
2023-03-25T09:31:00.876Z,19.50
2023-03-25T09:36:04.616Z,19.50
2023-03-25T09:41:30.613Z,19.60
2023-03-25T09:46:34.880Z,19.70
2023-03-25T09:51:41.347Z,19.70
2023-03-25T09:56:47.671Z,19.70
2023-03-25T10:02:02.118Z,19.80
2023-03-25T10:07:16.893Z,19.80
2023-03-25T10:12:33.781Z,19.90
2023-03-25T10:17:46.135Z,19.90
2023-03-25T10:23:02.573Z,19.90
2023-03-25T10:28:13.013Z,19.90
2023-03-25T10:33:22.630Z,19.90
2023-03-25T10:38:26.300Z,20.00
2023-03-25T10:43:33.719Z,20.00
2023-03-25T10:48:38.424Z,20.10
2023-03-25T10:53:43.017Z,20.10
2023-03-25T10:58:52.137Z,20.20
2023-03-25T11:03:56.201Z,20.30
2023-03-25T11:09:18.267Z,20.40
2023-03-25T11:14:27.839Z,20.50
2023-03-25T11:19:38.996Z,20.60
2023-03-25T11:24:45.798Z,20.60
2023-03-25T11:29:56.365Z,20.60
2023-03-25T11:35:03.843Z,20.60
2023-03-25T11:40:16.424Z,20.50
2023-03-25T11:45:35.728Z,20.60
2023-03-25T11:50:39.431Z,20.70
2023-03-25T11:55:47.000Z,20.80
2023-03-25T12:00:53.737Z,20.90
2023-03-25T12:06:00.468Z,21.10
2023-03-25T12:11:08.641Z,21.20
2023-03-25T12:16:24.141Z,21.40
2023-03-25T12:21:40.091Z,21.70
2023-03-25T12:26:52.226Z,22.20
2023-03-25T12:32:10.325Z,22.60
2023-03-25T12:37:26.512Z,23.00
2023-03-25T12:42:42.484Z,23.40
2023-03-25T12:47:52.259Z,23.60
2023-03-25T12:53:01.215Z,23.70
2023-03-25T12:58:27.560Z,23.60
2023-03-25T13:04:16.093Z,23.60
2023-03-25T13:09:26.806Z,23.50
2023-03-25T13:14:35.740Z,23.50
2023-03-25T13:19:44.346Z,23.40
2023-03-25T13:24:52.486Z,23.40
2023-03-25T13:29:59.165Z,23.30
2023-03-25T13:35:09.274Z,23.40
2023-03-25T13:40:26.408Z,23.40
2023-03-25T13:45:33.629Z,23.30
2023-03-25T13:50:38.695Z,23.30
2023-03-25T13:55:45.150Z,23.20
2023-03-25T14:01:13.238Z,23.10
2023-03-25T14:06:45.798Z,23.10
2023-03-25T14:11:53.938Z,23.00
2023-03-25T14:17:00.265Z,23.00
2023-03-25T14:22:14.312Z,22.90
2023-03-25T14:27:20.772Z,23.00
2023-03-25T14:32:33.136Z,23.00
2023-03-25T14:37:38.226Z,23.00
2023-03-25T14:42:44.481Z,23.00
2023-03-25T14:47:54.966Z,22.90
2023-03-25T14:53:03.624Z,22.90
2023-03-25T14:58:16.313Z,22.90
2023-03-25T15:03:22.423Z,22.80
2023-03-25T15:08:32.605Z,22.80
2023-03-25T15:13:39.409Z,22.70
2023-03-25T15:19:02.624Z,22.80
2023-03-25T15:24:12.441Z,22.70
2023-03-25T15:29:42.743Z,22.70
2023-03-25T15:35:18.822Z,22.70
2023-03-25T15:40:32.203Z,22.70
2023-03-25T15:46:04.008Z,22.70
2023-03-25T15:51:20.732Z,22.70
2023-03-25T15:56:28.795Z,22.80
2023-03-25T16:01:34.044Z,23.10
2023-03-25T16:06:42.743Z,23.40
2023-03-25T16:11:48.138Z,23.80
2023-03-25T16:16:55.948Z,24.10
2023-03-25T16:28:43.955Z,24.70
2023-03-25T16:33:47.274Z,25.00
2023-03-25T16:38:51.275Z,25.20
2023-03-25T16:43:58.009Z,25.30
2023-03-25T16:49:02.685Z,25.20
2023-03-25T16:54:11.779Z,24.80
2023-03-25T16:59:23.851Z,24.30
2023-03-25T17:04:30.086Z,23.70
2023-03-25T17:09:35.469Z,23.30
2023-03-25T17:14:43.845Z,22.70
2023-03-25T17:19:52.057Z,22.30
2023-03-25T17:24:57.978Z,21.90
2023-03-25T17:30:18.775Z,21.50
2023-03-25T17:35:28.600Z,21.30
2023-03-25T17:40:33.723Z,21.10
2023-03-25T17:45:38.866Z,20.90
2023-03-25T17:50:52.671Z,20.90
2023-03-25T17:55:59.232Z,20.80
2023-03-25T18:01:04.909Z,20.80
2023-03-25T18:06:09.354Z,20.80
2023-03-25T18:11:14.320Z,20.60
2023-03-25T18:16:22.830Z,20.50
2023-03-25T18:21:28.366Z,20.30
2023-03-25T18:26:33.426Z,20.20
2023-03-25T18:31:38.997Z,20.00
2023-03-25T18:36:45.690Z,19.90
2023-03-25T18:41:51.777Z,19.80
2023-03-25T18:46:58.139Z,19.70
2023-03-25T18:52:03.148Z,19.50
2023-03-25T18:57:07.597Z,19.40
2023-03-25T19:02:13.599Z,19.30
2023-03-25T19:07:18.294Z,19.20
2023-03-25T19:12:22.591Z,19.10
2023-03-25T19:17:32.504Z,18.90
2023-03-25T19:22:38.266Z,18.80
2023-03-25T19:27:43.096Z,18.70
2023-03-25T19:32:51.058Z,18.50
2023-03-25T19:37:59.009Z,18.40
2023-03-25T19:43:05.936Z,18.20
2023-03-25T19:48:15.217Z,18.10
2023-03-25T19:53:22.665Z,17.90
2023-03-25T19:58:27.922Z,17.70
2023-03-25T20:03:36.611Z,17.60
2023-03-25T20:08:40.434Z,17.40
2023-03-25T20:13:46.522Z,17.30
2023-03-25T20:18:52.816Z,17.20
2023-03-25T20:23:58.737Z,17.10
2023-03-25T20:29:04.853Z,17.00
2023-03-25T20:34:11.502Z,17.00
2023-03-25T20:39:16.429Z,17.00
2023-03-25T20:44:22.440Z,17.00
2023-03-25T20:49:28.335Z,17.00
2023-03-25T20:54:32.356Z,17.00
2023-03-25T20:59:36.924Z,17.00
2023-03-25T21:04:42.692Z,17.00
2023-03-25T21:09:49.545Z,17.00
2023-03-25T21:14:53.803Z,17.00
2023-03-25T21:20:00.181Z,17.00
2023-03-25T21:25:04.085Z,17.00
2023-03-25T21:30:10.269Z,16.90
2023-03-25T21:42:00.276Z,16.80
2023-03-25T21:47:17.973Z,16.70
2023-03-25T21:52:22.441Z,16.60
2023-03-25T21:57:27.422Z,16.60
2023-03-25T22:02:31.311Z,16.60
2023-03-25T22:07:34.842Z,16.50
2023-03-25T22:12:39.629Z,16.50
2023-03-25T22:17:42.999Z,16.50
2023-03-25T22:22:47.455Z,16.50
2023-03-25T22:27:52.232Z,16.50
2023-03-25T22:32:55.631Z,16.50
2023-03-25T22:37:59.342Z,16.40
2023-03-25T22:43:04.154Z,16.40
2023-03-25T22:48:08.026Z,16.30
2023-03-25T22:53:11.357Z,16.30
2023-03-25T22:58:16.018Z,16.30
2023-03-25T23:03:20.099Z,16.30
2023-03-25T23:08:25.920Z,16.40
2023-03-25T23:13:31.423Z,16.40
2023-03-25T23:18:36.680Z,16.50
2023-03-25T23:23:52.571Z,16.60
2023-03-25T23:29:00.557Z,16.60
2023-03-25T23:34:05.908Z,16.60
2023-03-25T23:39:11.144Z,16.70
2023-03-25T23:44:16.717Z,16.80
2023-03-25T23:49:20.293Z,16.80
2023-03-25T23:54:23.819Z,16.80
2023-03-25T23:59:28.595Z,16.70
